createdAt,value
2018-06-04T21:06:38.004Z,14.70
2018-06-04T21:09:07.616Z,15.17
2018-06-04T21:11:36.528Z,14.53
2018-06-04T21:14:04.719Z,14.40
2018-06-04T21:16:32.960Z,14.37
2018-06-04T21:19:01.225Z,16.97
2018-06-04T21:21:29.499Z,14.47
2018-06-04T21:23:57.761Z,14.53
2018-06-04T21:26:25.982Z,13.80
2018-06-04T21:28:54.258Z,12.43
2018-06-04T21:31:22.431Z,12.47
2018-06-04T21:33:50.610Z,14.27
2018-06-04T21:36:18.900Z,15.50
2018-06-04T21:38:47.124Z,14.47
2018-06-04T21:41:15.415Z,15.90
2018-06-04T21:43:43.658Z,16.10
2018-06-04T21:46:11.890Z,18.90
2018-06-04T21:48:44.291Z,13.23
2018-06-04T21:51:12.520Z,14.27
2018-06-04T21:53:41.089Z,15.83
2018-06-04T21:56:09.286Z,13.70
2018-06-04T21:58:37.516Z,14.90
2018-06-04T22:01:05.884Z,14.13
2018-06-04T22:03:34.187Z,15.10
2018-06-04T22:06:02.496Z,14.27
2018-06-04T22:08:30.822Z,13.17
2018-06-04T22:10:59.526Z,14.73
2018-06-04T22:13:27.715Z,13.80
2018-06-04T22:15:56.003Z,14.03
2018-06-04T22:18:24.242Z,12.63
2018-06-04T22:20:52.467Z,14.60
2018-06-04T22:23:20.709Z,14.50
2018-06-04T22:25:48.933Z,15.30
2018-06-04T22:28:17.227Z,13.60
2018-06-04T22:30:45.448Z,13.70
2018-06-04T22:33:13.658Z,15.23
2018-06-04T22:35:41.897Z,15.20
2018-06-04T22:38:10.088Z,13.93
2018-06-04T22:40:38.320Z,15.60
2018-06-04T22:43:06.572Z,14.27
2018-06-04T22:45:34.829Z,14.60
2018-06-04T22:48:03.141Z,14.87
2018-06-04T22:50:31.430Z,13.97
2018-06-04T22:53:06.410Z,14.80
2018-06-04T22:55:34.631Z,14.57
2018-06-04T22:58:02.808Z,15.40
2018-06-04T23:00:33.951Z,15.40
2018-06-04T23:03:02.403Z,15.70
2018-06-04T23:05:30.597Z,16.97
2018-06-04T23:07:58.786Z,16.97
2018-06-04T23:10:27.029Z,17.53
2018-06-04T23:12:55.247Z,15.87
2018-06-04T23:15:23.515Z,17.60
2018-06-04T23:17:51.779Z,17.40
2018-06-04T23:20:19.984Z,18.03
2018-06-04T23:22:48.181Z,20.00
2018-06-04T23:25:16.407Z,20.00
2018-06-04T23:27:44.625Z,18.93
2018-06-04T23:30:12.866Z,20.03
2018-06-04T23:32:41.109Z,19.30
2018-06-04T23:35:09.299Z,19.13
2018-06-04T23:37:37.498Z,19.27
2018-06-04T23:40:05.717Z,19.40
2018-06-04T23:42:34.460Z,19.87
2018-06-04T23:45:02.713Z,20.03
2018-06-04T23:47:31.093Z,19.13
2018-06-04T23:49:59.332Z,20.50
2018-06-04T23:52:27.612Z,20.47
2018-06-04T23:54:55.928Z,26.20
2018-06-04T23:57:24.138Z,20.53
2018-06-04T23:59:52.391Z,20.83
